Archival Weather

Teniente Col Carmelo Peralta

Teniente Col Carmelo Peralta, Paraguay (SGCO)

Report from: Wednesday, December 6, 2023 9:00 PM -03
Current time: Tuesday, April 23, 2024 3:50 AM -04

Current weather – Weather history – Daily summaries
Weather forecast

Temperature32.0°C (89.6°F)
Heat index36.8°C (98.3°F)
Dew point23.0°C (73.4°F)
Winds 5 kts (2.6 m/s, 5.8 mph) East-Southeast (110°)
Clouds Sky clear
Altimeter29.65 in.Hg (1004 mB)
Relative humidity59 %
Density altitude2,628 ft. (801 m)
Remarks Ceiling and visibility OK
Flight conditions Visual Meteorological Conditions
Raw dataSGCO 070000Z 11005KT CAVOK 32/23 Q1004
An error has occurred. This application may no longer respond until reloaded. Reload 🗙